createdAt,value
2019-01-12T00:01:09.238Z,11.60
2019-01-12T00:02:17.063Z,10.25
2019-01-12T00:03:22.134Z,10.95
2019-01-12T00:04:27.199Z,11.50
2019-01-12T00:05:32.316Z,11.25
2019-01-12T00:06:37.780Z,10.60
2019-01-12T00:07:42.786Z,11.20
2019-01-12T00:08:48.243Z,11.18
2019-01-12T00:09:53.304Z,10.23
2019-01-12T00:10:58.447Z,9.78
2019-01-12T00:12:03.646Z,8.65
2019-01-12T00:13:09.079Z,10.53
2019-01-12T00:14:14.605Z,9.35
2019-01-12T00:15:20.000Z,9.15
2019-01-12T00:16:25.097Z,9.33
2019-01-12T00:17:30.472Z,9.60
2019-01-12T00:18:35.819Z,9.55
2019-01-12T00:19:41.060Z,7.70
2019-01-12T00:20:46.175Z,8.70
2019-01-12T00:21:51.416Z,9.25
2019-01-12T00:22:56.529Z,9.15
2019-01-12T00:24:01.918Z,8.90
2019-01-12T00:25:07.239Z,8.78
2019-01-12T00:26:12.383Z,9.05
2019-01-12T00:27:17.909Z,8.33
2019-01-12T00:28:23.268Z,8.90
2019-01-12T00:29:28.370Z,8.53
2019-01-12T00:30:33.841Z,8.85
2019-01-12T00:31:38.827Z,9.63
2019-01-12T00:32:43.954Z,9.53
2019-01-12T00:33:49.391Z,9.05
2019-01-12T00:34:54.511Z,9.58
2019-01-12T00:35:59.494Z,8.80
2019-01-12T00:37:04.657Z,9.83
2019-01-12T00:38:09.786Z,9.00
2019-01-12T00:39:16.047Z,8.13
2019-01-12T00:40:21.071Z,8.43
2019-01-12T00:41:28.528Z,8.43
2019-01-12T00:42:33.956Z,7.50
2019-01-12T00:43:39.002Z,8.35
2019-01-12T00:44:44.051Z,8.70
2019-01-12T00:45:49.156Z,9.18
2019-01-12T00:46:54.209Z,8.35
2019-01-12T00:47:59.322Z,9.10
2019-01-12T00:49:04.368Z,7.75
2019-01-12T00:50:12.003Z,8.10
2019-01-12T00:51:17.156Z,8.58
2019-01-12T00:52:22.242Z,8.05
2019-01-12T00:53:27.676Z,7.20
2019-01-12T00:54:38.529Z,7.80
2019-01-12T00:55:39.786Z,8.28
2019-01-12T00:56:44.756Z,8.15
2019-01-12T00:57:50.153Z,8.05
2019-01-12T00:58:55.203Z,8.18
2019-01-12T01:00:00.193Z,8.53
2019-01-12T01:01:05.380Z,8.65
2019-01-12T01:02:10.837Z,10.30
2019-01-12T01:03:16.142Z,7.90
2019-01-12T01:04:22.281Z,8.95
2019-01-12T01:05:27.368Z,8.45
2019-01-12T01:06:32.499Z,7.80
2019-01-12T01:07:37.729Z,8.70
2019-01-12T01:08:42.719Z,9.10
2019-01-12T01:09:47.877Z,7.97
2019-01-12T01:10:52.877Z,9.70
2019-01-12T01:11:57.934Z,9.58
2019-01-12T01:13:03.044Z,8.40
2019-01-12T01:14:08.350Z,9.65
2019-01-12T01:15:13.840Z,8.15
2019-01-12T01:16:18.978Z,8.90
2019-01-12T01:17:23.943Z,7.75
2019-01-12T01:18:29.213Z,9.75
2019-01-12T01:19:34.669Z,9.58
2019-01-12T01:20:39.650Z,10.48
2019-01-12T01:21:44.586Z,10.45
2019-01-12T01:22:49.729Z,9.83
2019-01-12T01:23:55.576Z,9.85
2019-01-12T01:25:00.696Z,10.68
2019-01-12T01:26:05.889Z,9.98
2019-01-12T01:27:10.850Z,10.50
2019-01-12T01:28:16.600Z,9.25
2019-01-12T01:29:21.622Z,8.48
2019-01-12T01:30:26.729Z,10.58
2019-01-12T01:31:31.867Z,10.95
2019-01-12T01:32:37.003Z,9.83
2019-01-12T01:33:42.150Z,11.22
2019-01-12T01:34:47.197Z,10.85
2019-01-12T01:35:52.300Z,10.58
2019-01-12T01:36:57.437Z,11.40
2019-01-12T01:38:02.882Z,10.32
2019-01-12T01:39:09.592Z,10.78
2019-01-12T01:40:17.058Z,10.60
2019-01-12T01:41:22.105Z,10.60
2019-01-12T01:42:31.217Z,10.50
2019-01-12T01:43:36.403Z,11.25
2019-01-12T01:44:41.406Z,10.60
2019-01-12T01:45:46.518Z,10.08
2019-01-12T01:46:51.545Z,9.45
2019-01-12T01:47:56.999Z,11.90
2019-01-12T01:49:01.957Z,11.08
2019-01-12T01:50:08.074Z,9.75
2019-01-12T01:51:13.444Z,11.35
2019-01-12T01:52:18.509Z,10.05
2019-01-12T01:53:23.588Z,10.72
2019-01-12T01:54:28.575Z,10.40
2019-01-12T01:55:33.610Z,9.78
2019-01-12T01:56:38.725Z,9.10
2019-01-12T01:57:43.829Z,10.25
2019-01-12T01:58:49.486Z,9.20
2019-01-12T01:59:54.616Z,10.75
2019-01-12T02:01:00.600Z,9.35
2019-01-12T02:02:05.986Z,9.45
2019-01-12T02:03:11.036Z,9.75
2019-01-12T02:04:16.174Z,11.28
2019-01-12T02:05:21.272Z,10.98
2019-01-12T02:06:28.477Z,10.63
2019-01-12T02:07:33.578Z,10.05
2019-01-12T02:08:38.559Z,9.30
2019-01-12T02:09:43.707Z,10.32
2019-01-12T02:10:48.758Z,10.25
2019-01-12T02:11:53.798Z,10.30
2019-01-12T02:12:58.872Z,10.50
2019-01-12T02:14:04.036Z,10.13
2019-01-12T02:15:10.381Z,10.03
2019-01-12T02:16:15.518Z,10.95
2019-01-12T02:17:23.620Z,10.15
2019-01-12T02:18:28.847Z,11.55
2019-01-12T02:19:33.829Z,11.75
2019-01-12T02:20:38.911Z,11.88
2019-01-12T02:21:43.973Z,12.05
2019-01-12T02:22:49.029Z,10.30
2019-01-12T02:23:54.061Z,11.97
2019-01-12T02:25:00.075Z,11.40
2019-01-12T02:26:05.622Z,10.85
2019-01-12T02:27:10.676Z,10.65
2019-01-12T02:28:15.751Z,11.50
2019-01-12T02:29:23.849Z,11.08
2019-01-12T02:30:28.949Z,11.73
2019-01-12T02:31:34.069Z,11.53
2019-01-12T02:32:39.149Z,13.15
2019-01-12T02:33:44.533Z,10.35
2019-01-12T02:34:49.770Z,13.28
2019-01-12T02:35:54.889Z,12.50
2019-01-12T02:36:59.998Z,12.55
2019-01-12T02:38:05.208Z,12.90
2019-01-12T02:39:10.335Z,13.15
2019-01-12T02:40:15.468Z,12.98
2019-01-12T02:41:20.509Z,12.78
2019-01-12T02:42:25.653Z,12.70
2019-01-12T02:43:31.160Z,12.75
2019-01-12T02:44:36.191Z,13.45
2019-01-12T02:45:41.540Z,13.13
2019-01-12T02:46:46.553Z,13.00
2019-01-12T02:47:51.964Z,12.53
2019-01-12T02:48:56.997Z,11.53
2019-01-12T02:50:02.259Z,11.80
2019-01-12T02:51:07.315Z,12.65
2019-01-12T02:52:12.397Z,12.15
2019-01-12T02:53:17.452Z,10.70
2019-01-12T02:54:22.523Z,10.35
2019-01-12T02:55:27.648Z,10.98
2019-01-12T02:56:32.777Z,10.50
2019-01-12T02:57:38.213Z,11.08
2019-01-12T02:58:43.360Z,11.18
2019-01-12T02:59:48.483Z,12.50
2019-01-12T03:00:53.787Z,11.73
2019-01-12T03:01:58.892Z,12.47
2019-01-12T03:03:04.033Z,12.13
2019-01-12T03:04:09.165Z,12.30
2019-01-12T03:05:14.850Z,11.97
2019-01-12T03:06:19.955Z,12.18
2019-01-12T03:07:24.976Z,11.30
2019-01-12T03:08:31.268Z,12.88
2019-01-12T03:09:36.411Z,11.85
2019-01-12T03:10:41.665Z,12.23
2019-01-12T03:11:47.059Z,12.50
2019-01-12T03:12:52.080Z,13.72
2019-01-12T03:13:57.445Z,12.55
2019-01-12T03:15:02.564Z,15.68
2019-01-12T03:16:07.753Z,14.00
2019-01-12T03:17:12.892Z,13.78
2019-01-12T03:18:18.011Z,13.95
2019-01-12T03:19:23.048Z,14.80
2019-01-12T03:20:28.167Z,15.00
2019-01-12T03:21:33.205Z,15.55
2019-01-12T03:22:38.606Z,13.30
2019-01-12T03:23:44.338Z,13.95
2019-01-12T03:24:49.296Z,13.85
2019-01-12T03:25:54.406Z,12.55
2019-01-12T03:26:59.385Z,13.83
2019-01-12T03:28:04.706Z,12.98
2019-01-12T03:29:10.135Z,15.03
2019-01-12T03:30:19.530Z,13.08
2019-01-12T03:31:25.041Z,14.00
2019-01-12T03:32:30.405Z,14.93
2019-01-12T03:33:35.791Z,12.60
2019-01-12T03:34:40.853Z,13.18
2019-01-12T03:35:46.270Z,13.45
2019-01-12T03:36:51.434Z,13.60
2019-01-12T03:37:56.831Z,13.13
2019-01-12T03:39:02.050Z,13.32
2019-01-12T03:40:09.592Z,13.08
2019-01-12T03:41:14.612Z,13.10
2019-01-12T03:42:19.793Z,13.30
2019-01-12T03:43:24.847Z,14.00
2019-01-12T03:44:30.472Z,12.25
2019-01-12T03:45:35.623Z,13.53
2019-01-12T03:46:40.641Z,13.50
2019-01-12T03:47:45.717Z,13.68
2019-01-12T03:48:51.063Z,12.95
2019-01-12T03:49:56.806Z,13.22
2019-01-12T03:51:01.791Z,13.53
2019-01-12T03:52:06.893Z,13.58
2019-01-12T03:53:12.222Z,13.20
2019-01-12T03:54:17.568Z,13.55
2019-01-12T03:55:25.789Z,12.80
2019-01-12T03:56:29.379Z,12.60
2019-01-12T03:57:34.418Z,13.93
2019-01-12T03:58:39.892Z,13.70
2019-01-12T03:59:44.927Z,12.40
2019-01-12T04:00:50.042Z,14.38
2019-01-12T04:01:55.126Z,13.40
2019-01-12T04:03:00.536Z,12.20
2019-01-12T04:04:05.682Z,13.20
2019-01-12T04:05:11.293Z,14.58
2019-01-12T04:06:16.407Z,13.83
2019-01-12T04:07:21.382Z,14.10
2019-01-12T04:08:26.391Z,14.20
2019-01-12T04:09:31.714Z,13.55
2019-01-12T04:10:38.150Z,15.20
2019-01-12T04:11:43.188Z,13.85
2019-01-12T04:12:48.314Z,14.05
2019-01-12T04:13:53.347Z,14.18
2019-01-12T04:14:58.499Z,14.23
2019-01-12T04:16:03.628Z,13.35
2019-01-12T04:17:08.743Z,13.15
2019-01-12T04:18:13.692Z,14.50
2019-01-12T04:19:18.720Z,13.08
2019-01-12T04:20:23.835Z,14.28
2019-01-12T04:21:29.106Z,14.03
2019-01-12T04:22:34.148Z,14.20
2019-01-12T04:23:39.212Z,14.13
2019-01-12T04:24:44.263Z,16.55
2019-01-12T04:25:49.325Z,14.35
2019-01-12T04:26:54.376Z,12.03
2019-01-12T04:27:59.820Z,12.82
2019-01-12T04:29:05.637Z,12.93
2019-01-12T04:30:14.291Z,13.28
2019-01-12T04:31:19.412Z,13.75
2019-01-12T04:32:24.783Z,13.40
2019-01-12T04:33:29.918Z,12.78
2019-01-12T04:34:35.335Z,14.28
2019-01-12T04:35:40.311Z,12.60
2019-01-12T04:36:45.456Z,13.53
2019-01-12T04:37:50.548Z,13.50
2019-01-12T04:38:55.667Z,14.45
2019-01-12T04:40:00.716Z,14.05
2019-01-12T04:41:05.922Z,13.62
2019-01-12T04:42:11.074Z,13.90
2019-01-12T04:43:16.101Z,13.85
2019-01-12T04:44:21.213Z,15.25
2019-01-12T04:45:27.239Z,14.70
2019-01-12T04:46:32.284Z,13.53
2019-01-12T04:47:37.440Z,12.60
2019-01-12T04:48:42.498Z,13.53
2019-01-12T04:49:47.550Z,13.10
2019-01-12T04:50:52.857Z,13.60
2019-01-12T04:51:57.922Z,14.75
2019-01-12T04:53:03.346Z,11.43
2019-01-12T04:54:08.711Z,13.30
2019-01-12T04:55:14.172Z,12.95
2019-01-12T04:56:19.316Z,13.30
2019-01-12T04:57:24.440Z,13.35
2019-01-12T04:58:29.476Z,13.28
2019-01-12T04:59:35.606Z,15.45
2019-01-12T05:00:41.066Z,13.32
2019-01-12T05:01:46.087Z,11.93
2019-01-12T05:02:51.414Z,12.90
2019-01-12T05:03:56.972Z,12.75
2019-01-12T05:05:02.310Z,12.73
2019-01-12T05:06:07.427Z,12.68
2019-01-12T05:07:12.465Z,12.13
2019-01-12T05:08:17.510Z,12.25
2019-01-12T05:09:22.489Z,11.08
2019-01-12T05:10:27.953Z,11.68
2019-01-12T05:11:32.956Z,9.85
2019-01-12T05:12:39.170Z,10.70
2019-01-12T05:13:44.596Z,11.05
2019-01-12T05:14:49.611Z,10.90
2019-01-12T05:15:54.726Z,11.08
2019-01-12T05:16:59.851Z,10.55
2019-01-12T05:18:05.079Z,10.90
2019-01-12T05:19:10.445Z,10.85
2019-01-12T05:20:20.567Z,10.85
2019-01-12T05:21:25.604Z,10.43
2019-01-12T05:22:31.088Z,10.50
2019-01-12T05:23:36.161Z,10.98
2019-01-12T05:24:41.380Z,10.35
2019-01-12T05:25:49.226Z,10.58
2019-01-12T05:26:53.131Z,11.50
2019-01-12T05:27:58.257Z,10.75
2019-01-12T05:29:03.292Z,9.98
2019-01-12T05:30:10.563Z,11.20
2019-01-12T05:31:15.816Z,10.95
2019-01-12T05:32:20.906Z,9.98
2019-01-12T05:33:25.938Z,11.10
2019-01-12T05:34:31.011Z,11.03
2019-01-12T05:35:36.362Z,11.35
2019-01-12T05:36:41.401Z,11.30
2019-01-12T05:37:46.557Z,11.80
2019-01-12T05:38:51.992Z,10.85
2019-01-12T05:39:56.975Z,11.03
2019-01-12T05:41:01.979Z,10.80
2019-01-12T05:42:07.482Z,11.18
2019-01-12T05:43:12.486Z,10.93
2019-01-12T05:44:17.540Z,11.22
2019-01-12T05:45:22.665Z,10.23
2019-01-12T05:46:27.773Z,11.40
2019-01-12T05:47:32.935Z,11.12
2019-01-12T05:48:37.960Z,10.70
2019-01-12T05:49:43.359Z,11.55
2019-01-12T05:50:48.675Z,10.78
2019-01-12T05:51:53.647Z,10.43
2019-01-12T05:52:58.756Z,9.90
2019-01-12T05:54:03.864Z,10.60
2019-01-12T05:55:09.501Z,9.88
2019-01-12T05:56:14.638Z,10.10
2019-01-12T05:57:19.749Z,9.80
2019-01-12T05:58:25.218Z,10.13
2019-01-12T05:59:30.286Z,9.05
2019-01-12T06:00:35.528Z,9.65
2019-01-12T06:01:40.519Z,9.50
2019-01-12T06:02:45.623Z,9.63
2019-01-12T06:03:50.615Z,9.25
2019-01-12T06:04:55.567Z,8.98
2019-01-12T06:06:00.673Z,8.73
2019-01-12T06:07:05.767Z,8.93
2019-01-12T06:08:10.971Z,10.10
2019-01-12T06:09:15.983Z,8.85
2019-01-12T06:10:21.099Z,8.60
2019-01-12T06:11:26.063Z,12.93
2019-01-12T06:12:31.130Z,10.43
2019-01-12T06:13:36.542Z,9.33
2019-01-12T06:14:42.752Z,9.75
2019-01-12T06:15:48.218Z,11.12
2019-01-12T06:16:53.249Z,9.38
2019-01-12T06:17:58.200Z,9.05
2019-01-12T06:19:03.222Z,9.28
2019-01-12T06:20:09.974Z,9.40
2019-01-12T06:21:15.408Z,8.90
2019-01-12T06:22:20.406Z,9.25
2019-01-12T06:23:25.420Z,10.30
2019-01-12T06:24:30.479Z,9.50
2019-01-12T06:25:35.487Z,9.38
2019-01-12T06:26:40.624Z,9.70
2019-01-12T06:27:45.996Z,10.40
2019-01-12T06:28:51.291Z,9.80
2019-01-12T06:29:56.310Z,9.35
2019-01-12T06:31:01.395Z,9.78
2019-01-12T06:32:06.488Z,9.18
2019-01-12T06:33:11.560Z,9.73
2019-01-12T06:34:16.562Z,10.35
2019-01-12T06:35:21.713Z,9.65
2019-01-12T06:36:26.738Z,9.55
2019-01-12T06:37:31.662Z,9.08
2019-01-12T06:38:36.780Z,9.90
2019-01-12T06:39:42.066Z,10.00
2019-01-12T06:40:47.409Z,10.00
2019-01-12T06:41:52.417Z,10.20
2019-01-12T06:42:58.164Z,9.28
2019-01-12T06:44:03.317Z,9.13
2019-01-12T06:45:10.518Z,10.93
2019-01-12T06:46:15.468Z,9.23
2019-01-12T06:47:20.445Z,9.75
2019-01-12T06:48:25.411Z,10.55
2019-01-12T06:49:30.390Z,10.18
2019-01-12T06:50:35.346Z,11.30
2019-01-12T06:51:40.722Z,11.48
2019-01-12T06:52:46.282Z,10.72
2019-01-12T06:53:51.303Z,11.45
2019-01-12T06:54:56.382Z,11.12
2019-01-12T06:56:01.839Z,11.15
2019-01-12T06:57:07.271Z,11.57
2019-01-12T06:58:12.339Z,11.08
2019-01-12T06:59:17.310Z,12.68
2019-01-12T07:00:22.432Z,11.78
2019-01-12T07:01:27.708Z,12.88
2019-01-12T07:02:32.735Z,10.82
2019-01-12T07:03:37.800Z,12.35
2019-01-12T07:04:42.795Z,12.98
2019-01-12T07:05:47.866Z,12.60
2019-01-12T07:06:52.981Z,12.35
2019-01-12T07:07:58.098Z,11.85
2019-01-12T07:09:03.933Z,12.58
2019-01-12T07:10:10.775Z,13.15
2019-01-12T07:11:15.872Z,12.80
2019-01-12T07:12:20.935Z,12.73
2019-01-12T07:13:25.860Z,12.53
2019-01-12T07:14:31.073Z,12.70
2019-01-12T07:15:36.084Z,12.03
2019-01-12T07:16:42.864Z,14.18
2019-01-12T07:17:48.042Z,12.75
2019-01-12T07:18:54.426Z,11.40
2019-01-12T07:19:59.775Z,13.30
2019-01-12T07:21:04.905Z,12.45
2019-01-12T07:22:09.953Z,13.00
2019-01-12T07:23:14.957Z,12.63
2019-01-12T07:24:19.980Z,12.28
2019-01-12T07:25:25.110Z,12.63
2019-01-12T07:26:30.148Z,11.93
2019-01-12T07:27:35.610Z,12.90
2019-01-12T07:28:40.561Z,14.45
2019-01-12T07:29:45.556Z,13.30
2019-01-12T07:30:55.422Z,13.48
2019-01-12T07:32:00.517Z,12.78
2019-01-12T07:33:05.626Z,13.25
2019-01-12T07:34:10.963Z,13.90
2019-01-12T07:35:16.402Z,13.68
2019-01-12T07:36:21.389Z,12.95
2019-01-12T07:37:27.166Z,13.15
2019-01-12T07:38:32.533Z,13.90
2019-01-12T07:39:37.928Z,14.85
2019-01-12T07:40:43.522Z,13.45
2019-01-12T07:41:48.663Z,11.93
2019-01-12T07:42:53.700Z,15.25
2019-01-12T07:43:58.687Z,12.98
2019-01-12T07:45:04.245Z,15.43
2019-01-12T07:46:09.239Z,14.30
2019-01-12T07:47:14.405Z,12.65
2019-01-12T07:48:19.378Z,14.13
2019-01-12T07:49:24.461Z,14.83
2019-01-12T07:50:29.864Z,12.78
2019-01-12T07:51:34.959Z,13.60
2019-01-12T07:52:40.024Z,14.43
2019-01-12T07:53:45.020Z,14.38
2019-01-12T07:54:50.064Z,14.85
2019-01-12T07:55:55.065Z,14.83
2019-01-12T07:57:00.167Z,13.93
2019-01-12T07:58:05.373Z,14.93
2019-01-12T07:59:10.410Z,17.05
2019-01-12T08:00:21.161Z,15.10
2019-01-12T08:01:26.261Z,16.25
2019-01-12T08:02:31.629Z,14.28
2019-01-12T08:03:36.766Z,17.55
2019-01-12T08:04:41.809Z,15.70
2019-01-12T08:05:46.880Z,15.25
2019-01-12T08:06:52.646Z,16.32
2019-01-12T08:07:57.770Z,17.42
2019-01-12T08:09:02.834Z,15.48
2019-01-12T08:10:11.490Z,15.88
2019-01-12T08:11:16.637Z,18.05
2019-01-12T08:12:22.052Z,17.60
2019-01-12T08:13:27.253Z,17.17
2019-01-12T08:14:32.531Z,17.35
2019-01-12T08:15:38.335Z,17.62
2019-01-12T08:16:43.825Z,17.05
2019-01-12T08:17:48.937Z,18.00
2019-01-12T08:18:55.692Z,16.82
2019-01-12T08:20:01.203Z,18.30
2019-01-12T08:21:06.483Z,17.15
2019-01-12T08:22:11.754Z,17.40
2019-01-12T08:23:16.899Z,17.30
2019-01-12T08:24:23.314Z,17.82
2019-01-12T08:25:28.605Z,19.57
2019-01-12T08:26:33.926Z,17.40
2019-01-12T08:27:39.276Z,17.55
2019-01-12T08:28:45.012Z,17.00
2019-01-12T08:29:50.111Z,18.45
2019-01-12T08:30:55.221Z,17.67
2019-01-12T08:32:00.614Z,16.10
2019-01-12T08:33:06.503Z,19.15
2019-01-12T08:34:11.967Z,16.90
2019-01-12T08:35:17.462Z,17.05
2019-01-12T08:36:24.183Z,18.35
2019-01-12T08:37:29.329Z,18.27
2019-01-12T08:38:34.835Z,16.37
2019-01-12T08:39:40.296Z,16.77
2019-01-12T08:40:45.501Z,18.48
2019-01-12T08:41:52.708Z,18.10
2019-01-12T08:42:57.837Z,18.07
2019-01-12T08:44:03.054Z,17.75
2019-01-12T08:45:10.104Z,17.62
2019-01-12T08:46:17.256Z,18.48
2019-01-12T08:47:22.470Z,20.23
2019-01-12T08:48:27.587Z,19.98
2019-01-12T08:49:32.661Z,19.98
2019-01-12T08:50:38.050Z,18.98
2019-01-12T08:51:43.176Z,20.20
2019-01-12T08:52:48.877Z,19.82
2019-01-12T08:53:53.997Z,18.60
2019-01-12T08:54:59.073Z,18.45
2019-01-12T08:56:04.464Z,19.90
2019-01-12T08:57:11.655Z,21.05
2019-01-12T08:59:49.796Z,20.50
2019-01-12T09:00:55.752Z,21.17
2019-01-12T09:02:00.888Z,20.17
2019-01-12T09:03:09.160Z,20.32
2019-01-12T09:04:15.056Z,20.25
2019-01-12T09:05:20.592Z,20.30
2019-01-12T09:06:25.644Z,20.37
2019-01-12T09:07:30.698Z,19.00
2019-01-12T09:08:35.930Z,22.07
2019-01-12T09:09:41.091Z,20.48
2019-01-12T09:10:46.311Z,20.20
2019-01-12T09:11:53.111Z,19.77
2019-01-12T09:12:58.491Z,21.40
2019-01-12T09:14:03.713Z,21.62
2019-01-12T09:15:12.375Z,23.10
2019-01-12T09:16:17.900Z,20.77
2019-01-12T09:17:23.705Z,21.60
2019-01-12T09:18:29.656Z,20.40
2019-01-12T09:19:34.723Z,19.65
2019-01-12T09:20:40.220Z,22.62
2019-01-12T09:21:47.129Z,19.90
2019-01-12T09:22:52.572Z,20.25
2019-01-12T09:23:58.230Z,20.45
2019-01-12T09:25:04.263Z,20.40
2019-01-12T09:26:10.311Z,23.30
2019-01-12T09:27:15.407Z,20.80
2019-01-12T09:28:21.068Z,19.40
2019-01-12T09:29:26.292Z,20.40
2019-01-12T09:30:31.459Z,20.08
2019-01-12T09:31:37.222Z,21.85
2019-01-12T09:32:42.892Z,19.90
2019-01-12T09:33:48.091Z,17.20
2019-01-12T09:34:53.502Z,19.05
2019-01-12T09:36:00.455Z,22.13
2019-01-12T09:37:05.690Z,21.52
2019-01-12T09:38:10.721Z,21.05
2019-01-12T09:39:15.837Z,19.70
2019-01-12T09:40:22.364Z,20.35
2019-01-12T09:41:27.489Z,20.32
2019-01-12T09:42:32.621Z,19.27
2019-01-12T09:43:37.625Z,20.60
2019-01-12T09:44:42.766Z,19.77
2019-01-12T09:45:47.802Z,21.48
2019-01-12T09:46:53.093Z,21.35
2019-01-12T09:47:58.200Z,21.52
2019-01-12T09:49:03.291Z,20.32
2019-01-12T09:50:11.113Z,20.15
2019-01-12T09:51:16.232Z,19.12
2019-01-12T09:52:21.305Z,19.70
2019-01-12T09:53:26.282Z,19.87
2019-01-12T09:54:31.383Z,20.15
2019-01-12T09:55:36.826Z,20.97
2019-01-12T09:56:41.823Z,20.92
2019-01-12T09:57:46.924Z,20.25
2019-01-12T09:58:51.954Z,19.17
2019-01-12T09:59:56.954Z,19.48
2019-01-12T10:01:02.094Z,18.90
2019-01-12T10:02:07.417Z,20.70
2019-01-12T10:03:12.895Z,20.68
2019-01-12T10:04:17.941Z,20.65
2019-01-12T10:05:23.206Z,20.43
2019-01-12T10:06:28.270Z,19.23
2019-01-12T10:07:33.383Z,20.00
2019-01-12T10:08:38.470Z,19.82
2019-01-12T10:09:43.873Z,20.20
2019-01-12T10:10:49.092Z,19.98
2019-01-12T10:11:54.355Z,20.32
2019-01-12T10:12:59.403Z,18.98
2019-01-12T10:14:04.842Z,20.20
2019-01-12T10:15:10.561Z,20.97
2019-01-12T10:16:16.020Z,20.82
2019-01-12T10:17:21.077Z,22.52
2019-01-12T10:18:26.448Z,22.15
2019-01-12T10:19:31.903Z,19.00
2019-01-12T10:20:36.988Z,21.05
2019-01-12T10:21:42.033Z,19.62
2019-01-12T10:22:47.289Z,21.23
2019-01-12T10:23:53.717Z,20.75
2019-01-12T10:24:58.882Z,20.72
2019-01-12T10:26:04.052Z,18.77
2019-01-12T10:27:09.182Z,20.52
2019-01-12T10:28:14.302Z,19.05
2019-01-12T10:29:19.414Z,20.90
2019-01-12T10:30:26.568Z,19.60
2019-01-12T10:31:31.964Z,19.23
2019-01-12T10:32:37.488Z,19.67
2019-01-12T10:33:42.614Z,19.25
2019-01-12T10:34:47.649Z,20.27
2019-01-12T10:35:53.221Z,18.67
2019-01-12T10:36:58.407Z,20.05
2019-01-12T10:38:03.698Z,18.65
2019-01-12T10:39:09.288Z,20.75
2019-01-12T10:40:15.082Z,20.62
2019-01-12T10:41:20.195Z,19.35
2019-01-12T10:42:25.343Z,20.97
2019-01-12T10:43:30.595Z,18.20
2019-01-12T10:44:36.116Z,20.43
2019-01-12T10:45:41.477Z,17.73
2019-01-12T10:46:46.943Z,17.57
2019-01-12T10:47:52.232Z,18.10
2019-01-12T10:48:57.285Z,20.35
2019-01-12T10:50:02.621Z,18.45
2019-01-12T10:51:08.033Z,17.35
2019-01-12T10:52:13.590Z,19.25
2019-01-12T10:53:18.573Z,19.60
2019-01-12T10:54:23.841Z,19.00
2019-01-12T10:55:29.322Z,18.73
2019-01-12T10:56:34.554Z,18.75
2019-01-12T10:57:40.262Z,19.17
2019-01-12T10:58:45.402Z,18.00
2019-01-12T10:59:52.478Z,18.40
2019-01-12T11:00:57.872Z,16.90
2019-01-12T11:02:02.861Z,19.62
2019-01-12T11:03:08.729Z,18.15
2019-01-12T11:04:15.547Z,19.75
2019-01-12T11:05:21.088Z,18.65
2019-01-12T11:06:26.237Z,17.87
2019-01-12T11:07:31.427Z,18.67
2019-01-12T11:08:36.549Z,18.27
2019-01-12T11:09:41.928Z,19.60
2019-01-12T11:10:48.172Z,18.70
2019-01-12T11:11:53.634Z,16.85
2019-01-12T11:12:58.661Z,15.63
2019-01-12T11:14:03.975Z,17.00
2019-01-12T11:15:13.218Z,18.57
2019-01-12T11:16:20.774Z,16.67
2019-01-12T11:17:25.921Z,18.23
2019-01-12T11:18:31.387Z,16.77
2019-01-12T11:19:37.273Z,17.40
2019-01-12T11:20:42.363Z,18.32
2019-01-12T11:21:47.436Z,17.23
2019-01-12T11:22:53.055Z,16.87
2019-01-12T11:23:58.159Z,17.32
2019-01-12T11:25:04.807Z,16.90
2019-01-12T11:26:11.152Z,16.97
2019-01-12T11:27:16.246Z,17.02
2019-01-12T11:28:22.006Z,18.15
2019-01-12T11:29:27.257Z,16.85
2019-01-12T11:30:32.652Z,15.88
2019-01-12T11:31:38.093Z,17.42
2019-01-12T11:32:43.418Z,16.52
2019-01-12T11:33:48.391Z,18.30
2019-01-12T11:34:53.435Z,17.62
2019-01-12T11:35:58.420Z,18.70
2019-01-12T11:37:03.630Z,16.65
2019-01-12T11:38:08.800Z,17.35
2019-01-12T11:39:14.216Z,16.50
2019-01-12T11:40:22.601Z,18.05
2019-01-12T11:41:27.752Z,16.45
2019-01-12T11:42:32.915Z,16.87
2019-01-12T11:43:38.139Z,18.82
2019-01-12T11:44:43.515Z,17.37
2019-01-12T11:45:48.767Z,16.95
2019-01-12T11:46:54.329Z,15.75
2019-01-12T11:47:59.547Z,17.45
2019-01-12T11:49:04.729Z,17.62
2019-01-12T11:50:12.604Z,15.88
2019-01-12T11:51:17.729Z,17.48
2019-01-12T11:52:22.889Z,16.07
2019-01-12T11:53:28.088Z,16.95
2019-01-12T11:54:33.139Z,16.37
2019-01-12T11:55:38.396Z,16.23
2019-01-12T11:56:43.500Z,17.12
2019-01-12T11:57:48.623Z,15.55
2019-01-12T11:58:54.023Z,17.60
2019-01-12T11:59:59.083Z,17.05
2019-01-12T12:01:04.603Z,15.55
2019-01-12T12:02:10.491Z,17.35
2019-01-12T12:03:15.669Z,18.05
2019-01-12T12:04:20.829Z,17.62
2019-01-12T12:05:26.487Z,15.80
2019-01-12T12:06:31.772Z,15.48
2019-01-12T12:07:36.911Z,16.10
2019-01-12T12:08:42.034Z,16.02
2019-01-12T12:09:47.417Z,14.95
2019-01-12T12:10:52.518Z,14.70
2019-01-12T12:11:57.494Z,16.05
2019-01-12T12:13:02.529Z,13.28
2019-01-12T12:14:07.962Z,15.78
2019-01-12T12:15:14.418Z,16.48
2019-01-12T12:16:19.456Z,15.05
2019-01-12T12:17:24.516Z,16.37
2019-01-12T12:18:29.757Z,14.07
2019-01-12T12:19:34.819Z,14.55
2019-01-12T12:20:40.905Z,13.90
2019-01-12T12:21:46.038Z,13.83
2019-01-12T12:22:51.489Z,13.83
2019-01-12T12:23:56.586Z,14.50
2019-01-12T12:25:01.674Z,15.40
2019-01-12T12:26:06.890Z,12.47
2019-01-12T12:27:12.469Z,12.60
2019-01-12T12:28:17.907Z,14.05
2019-01-12T12:29:23.266Z,13.65
2019-01-12T12:30:31.916Z,15.05
2019-01-12T12:31:37.284Z,12.93
2019-01-12T12:32:42.394Z,13.30
2019-01-12T12:33:47.366Z,12.50
2019-01-12T12:34:52.344Z,13.20
2019-01-12T12:35:57.483Z,13.93
2019-01-12T12:37:02.596Z,14.68
2019-01-12T12:38:07.980Z,14.50
2019-01-12T12:39:13.549Z,13.60
2019-01-12T12:40:19.489Z,13.35
2019-01-12T12:41:24.897Z,13.20
2019-01-12T12:42:29.909Z,11.33
2019-01-12T12:43:35.026Z,14.15
2019-01-12T12:44:40.148Z,13.62
2019-01-12T12:45:45.280Z,13.40
2019-01-12T12:46:50.741Z,12.78
2019-01-12T12:47:55.940Z,14.07
2019-01-12T12:49:01.107Z,12.90
2019-01-12T12:50:08.956Z,13.15
2019-01-12T12:51:14.073Z,13.30
2019-01-12T12:52:19.125Z,14.85
2019-01-12T12:53:24.244Z,11.95
2019-01-12T12:54:29.700Z,12.60
2019-01-12T12:55:40.210Z,11.97
2019-01-12T12:56:45.445Z,12.40
2019-01-12T12:57:50.893Z,13.05
2019-01-12T12:58:55.961Z,13.48
2019-01-12T13:00:01.265Z,12.47
2019-01-12T13:01:06.690Z,13.48
2019-01-12T13:02:12.003Z,11.43
2019-01-12T13:03:17.129Z,13.03
2019-01-12T13:04:23.398Z,11.00
2019-01-12T13:05:28.544Z,12.75
2019-01-12T13:06:34.766Z,12.73
2019-01-12T13:07:39.996Z,15.23
2019-01-12T13:08:48.519Z,14.00
2019-01-12T13:09:52.056Z,12.00
2019-01-12T13:10:57.438Z,12.23
2019-01-12T13:12:02.988Z,12.10
2019-01-12T13:13:08.016Z,12.85
2019-01-12T13:14:14.287Z,10.60
2019-01-12T13:15:19.553Z,12.30
2019-01-12T13:16:25.405Z,11.95
2019-01-12T13:17:30.881Z,11.25
2019-01-12T13:18:36.962Z,10.00
2019-01-12T13:19:42.339Z,10.70
2019-01-12T13:20:49.326Z,11.33
2019-01-12T13:21:55.121Z,11.00
2019-01-12T13:23:03.404Z,10.98
2019-01-12T13:24:08.525Z,9.38
2019-01-12T13:25:13.756Z,11.25
2019-01-12T13:26:19.159Z,10.30
2019-01-12T13:27:24.350Z,9.38
2019-01-12T13:28:29.408Z,9.75
2019-01-12T13:29:35.567Z,10.30
2019-01-12T13:30:40.625Z,9.88
2019-01-12T13:31:45.623Z,9.88
2019-01-12T13:32:50.728Z,9.50
2019-01-12T13:33:55.764Z,9.35
2019-01-12T13:35:00.784Z,10.63
2019-01-12T13:36:07.868Z,9.70
2019-01-12T13:37:12.977Z,11.25
2019-01-12T13:38:18.136Z,10.40
2019-01-12T13:39:23.140Z,12.47
2019-01-12T13:40:29.244Z,9.15
2019-01-12T13:41:34.294Z,10.75
2019-01-12T13:42:39.451Z,10.65
2019-01-12T13:43:44.527Z,10.13
2019-01-12T13:44:49.671Z,10.48
2019-01-12T13:45:54.785Z,9.53
2019-01-12T13:46:59.951Z,10.08
2019-01-12T13:48:05.303Z,9.75
2019-01-12T13:49:10.399Z,9.70
2019-01-12T13:50:17.787Z,8.95
2019-01-12T13:51:22.828Z,8.88
2019-01-12T13:52:27.917Z,8.58
2019-01-12T13:53:33.295Z,8.95
2019-01-12T13:54:38.792Z,7.87
2019-01-12T13:55:43.903Z,8.28
2019-01-12T13:56:49.395Z,9.53
2019-01-12T13:57:54.653Z,8.90
2019-01-12T13:58:59.939Z,8.68
2019-01-12T14:00:07.783Z,9.23
2019-01-12T14:01:13.083Z,8.05
2019-01-12T14:02:18.705Z,8.25
2019-01-12T14:03:24.209Z,8.35
2019-01-12T14:04:29.595Z,7.67
2019-01-12T14:05:35.051Z,8.05
2019-01-12T14:06:40.200Z,7.85
2019-01-12T14:07:45.671Z,8.70
2019-01-12T14:08:50.644Z,8.35
2019-01-12T14:09:56.034Z,7.85